Mt Bachelor previous 24hr weather report
        updated 10/31/2014 6:08
Year Month Date Time Base Pmx Smt Pmx Smt Pmx Pmx Pmx Smt Smt Smt Srx Srx Srx
Temp Temp Temp RH RH wind wind wind wind wind wind wind wind wind
6300' 7800' 9000' 7800' 9000' avg max dir avg max dir avg max dir
1 2014 10 31 10/31/2014 600 40.8 33.7 95 12 40 139
2 2014 10 31 10/31/2014 500 41 34 95 15 38 150
3 2014 10 31 10/31/2014 400 39.2 33.1 96 16 26 205
4 2014 10 31 10/31/2014 300 37.3 32.9 96 13 20 221
5 2014 10 31 10/31/2014 200 39.1 33.6 96 7 14 191
6 2014 10 31 10/31/2014 100 40.4 34 96 9 17 192
7 2014 10 30 10/30/2014 2400 40.8 36.8 90 8 29 153
8 2014 10 30 10/30/2014 2300 41.9 35.7 96 12 38 214
9 2014 10 30 10/30/2014 2200 44.2 37.1 97 8 21 221
10 2014 10 30 10/30/2014 2100 47 41.4 89 11 34 193
11 2014 10 30 10/30/2014 2000 49.5 41.9 86 9 28 158
12 2014 10 30 10/30/2014 1900 50.2 43.5 86 17 37 150
13 2014 10 30 10/30/2014 1800 50.3 43.2 83 18 29 141
14 2014 10 30 10/30/2014 1700 51.9 44.1 78 7 28 128
15 2014 10 30 10/30/2014 1600 54.5 44.9 77 13 36 158
16 2014 10 30 10/30/2014 1500 57 45.7 71 8 30 144
17 2014 10 30 10/30/2014 1400 57.2 47 69 6 16 169
18 2014 10 30 10/30/2014 1300 57.3 46 62 10 35 129
19 2014 10 30 10/30/2014 1200 54.4 44.6 68 17 47 110
20 2014 10 30 10/30/2014 1100 53.3 44.4 73 17 32 137
21 2014 10 30 10/30/2014 1000 50.1 43.3 80 23 39 105
22 2014 10 30 10/30/2014 900 48.9 42.9 81 20 39 126
23 2014 10 30 10/30/2014 800 48.2 42.6 86 11 25 142
24 2014 10 30 10/30/2014 700 47.8 43.1 89 13 28 142
1 2014 10 30 10/30/2014 600 46.6 42.4 94 13 27 149